Time;durP1;ratioP1;P1;durP2;ratioP2;P2;SDS_P1;SDS_P2;PMS_P1;PMS_P2;Temp;Humidity;BMP_temperature;BMP_pressure;BME280_temperature;BME280_humidity;BME280_pressure;Samples;Min_cycle;Max_cycle;Signal;HPM_P1;HPM_P2
2022/05/03 00:00:03;;;;;;;1.73;1.48;;;14.40;99.90;;;;;;1039262;28;20686;-63
2022/05/03 00:00:36;;;;;;;3.65;1.65;;;14.40;99.90;;;;;;1039580;28;20010;-65
2022/05/03 00:01:14;;;;;;;1.33;1.23;;;14.40;99.90;;;;;;1039773;28;20018;-64
2022/05/03 00:02:06;;;;;;;1.67;1.38;;;14.40;99.90;;;;;;1038618;28;20545;-65
2022/05/03 00:02:58;;;;;;;1.52;1.42;;;14.40;99.90;;;;;;1039461;28;20021;-64
2022/05/03 00:03:51;;;;;;;2.70;1.60;;;14.40;99.90;;;;;;1039521;28;20041;-64
2022/05/03 00:05:02;;;;;;;1.58;1.13;;;14.40;99.90;;;;;;1039787;28;20385;-64
2022/05/03 00:05:51;;;;;;;1.33;1.23;;;14.40;99.90;;;;;;1039806;28;20025;-64
2022/05/03 00:06:50;;;;;;;1.77;1.42;;;14.40;99.90;;;;;;1039673;28;20025;-64
2022/05/03 00:07:26;;;;;;;2.30;1.40;;;14.40;99.90;;;;;;1039877;28;20435;-66
2022/05/03 00:08:00;;;;;;;2.08;1.23;;;14.40;99.90;;;;;;1039598;28;20457;-63
2022/05/03 00:08:40;;;;;;;1.88;1.55;;;14.40;99.90;;;;;;1039757;28;20109;-64
2022/05/03 00:09:18;;;;;;;2.63;1.60;;;14.30;99.90;;;;;;1039698;28;20380;-67
2022/05/03 00:10:16;;;;;;;1.48;1.30;;;14.30;99.90;;;;;;1039469;28;20017;-66
2022/05/03 00:11:28;;;;;;;1.88;1.30;;;14.30;99.90;;;;;;1038361;28;20071;-66
2022/05/03 00:12:05;;;;;;;1.77;1.52;;;14.30;99.90;;;;;;1031329;28;20097;-65
2022/05/03 00:12:52;;;;;;;1.38;1.25;;;14.30;99.90;;;;;;1035615;28;20010;-64
2022/05/03 00:13:35;;;;;;;2.55;1.52;;;14.30;99.90;;;;;;1035462;28;20481;-65
2022/05/03 00:14:12;;;;;;;2.25;1.30;;;14.30;99.90;;;;;;1035337;28;20014;-65
2022/05/03 00:14:50;;;;;;;2.38;1.40;;;14.30;99.90;;;;;;1038317;28;20107;-65
2022/05/03 00:15:22;;;;;;;1.88;1.38;;;14.30;99.90;;;;;;1039690;28;20041;-67
2022/05/03 00:15:55;;;;;;;3.67;1.50;;;14.30;99.90;;;;;;1039597;28;20020;-65
2022/05/03 00:16:27;;;;;;;1.27;1.17;;;14.30;99.90;;;;;;1039050;28;20053;-66
2022/05/03 00:16:59;;;;;;;1.30;1.02;;;14.30;99.90;;;;;;1038610;28;20028;-65
2022/05/03 00:17:30;;;;;;;1.67;1.40;;;14.30;99.90;;;;;;1039449;28;20410;-65
2022/05/03 00:18:02;;;;;;;1.33;1.20;;;14.30;99.90;;;;;;1039120;28;20029;-65
2022/05/03 00:18:33;;;;;;;1.30;1.20;;;14.30;99.90;;;;;;1039603;28;20037;-66
2022/05/03 00:19:05;;;;;;;1.57;1.47;;;14.30;99.90;;;;;;1039298;28;20026;-65
2022/05/03 00:19:37;;;;;;;2.58;1.50;;;14.30;99.90;;;;;;1039351;28;20018;-65
2022/05/03 00:20:08;;;;;;;2.42;1.67;;;14.20;99.90;;;;;;1039230;28;20052;-65
2022/05/03 00:20:40;;;;;;;3.60;1.75;;;14.20;99.90;;;;;;1039340;28;20025;-65
2022/05/03 00:21:12;;;;;;;1.33;1.20;;;14.20;99.90;;;;;;1039333;28;20067;-65
2022/05/03 00:21:43;;;;;;;1.48;1.30;;;14.20;99.90;;;;;;1039420;28;20472;-65
2022/05/03 00:22:14;;;;;;;1.63;1.42;;;14.20;99.90;;;;;;1039181;28;20029;-65
2022/05/03 00:22:45;;;;;;;1.50;1.40;;;14.20;99.90;;;;;;1039437;28;20013;-66
2022/05/03 00:23:16;;;;;;;1.50;1.25;;;14.20;99.90;;;;;;1039305;28;20437;-65
2022/05/03 00:23:48;;;;;;;1.75;1.15;;;14.20;99.90;;;;;;1039180;28;20112;-65
2022/05/03 00:24:19;;;;;;;2.28;1.48;;;14.20;99.90;;;;;;1039140;28;20029;-66
2022/05/03 00:24:54;;;;;;;1.33;1.17;;;14.20;99.90;;;;;;1035271;28;20093;-66
2022/05/03 00:25:25;;;;;;;2.45;1.30;;;14.20;99.90;;;;;;1031149;28;20114;-65
2022/05/03 00:25:57;;;;;;;1.90;1.33;;;14.20;99.90;;;;;;1030640;28;20029;-65
2022/05/03 00:26:29;;;;;;;2.90;1.15;;;14.20;99.90;;;;;;1035108;28;20033;-66
2022/05/03 00:26:59;;;;;;;1.60;1.40;;;14.20;99.90;;;;;;1038689;28;20022;-65
2022/05/03 00:27:30;;;;;;;1.93;1.00;;;14.20;99.90;;;;;;1039664;28;20044;-65
2022/05/03 00:28:00;;;;;;;2.37;1.23;;;14.10;99.90;;;;;;1039360;28;20056;-67
2022/05/03 00:28:32;;;;;;;2.63;1.13;;;14.10;99.90;;;;;;1038923;28;20022;-65
2022/05/03 00:29:03;;;;;;;1.40;1.30;;;14.10;99.90;;;;;;1039037;28;20068;-65
2022/05/03 00:29:34;;;;;;;1.75;1.30;;;14.10;99.90;;;;;;1038513;28;20397;-65
2022/05/03 00:30:06;;;;;;;2.90;1.50;;;14.10;99.90;;;;;;1039205;28;20026;-65
2022/05/03 00:30:38;;;;;;;1.45;1.35;;;14.10;99.90;;;;;;1035027;28;20029;-65
2022/05/03 00:31:10;;;;;;;1.13;1.02;;;14.10;99.90;;;;;;1035775;28;20022;-65
2022/05/03 00:31:41;;;;;;;1.98;1.50;;;14.10;99.90;;;;;;1034689;28;20018;-68
2022/05/03 00:32:12;;;;;;;1.70;1.38;;;14.10;99.90;;;;;;1031046;28;20181;-65
2022/05/03 00:32:43;;;;;;;1.38;1.20;;;14.10;99.90;;;;;;1031235;28;20054;-64
2022/05/03 00:33:15;;;;;;;1.50;1.40;;;14.10;99.90;;;;;;1031495;28;20018;-64
2022/05/03 00:33:47;;;;;;;1.83;1.60;;;14.10;99.90;;;;;;1035643;28;20029;-66
2022/05/03 00:34:20;;;;;;;3.38;1.58;;;14.10;99.90;;;;;;1035347;28;20637;-66
2022/05/03 00:34:51;;;;;;;1.45;1.17;;;14.10;99.90;;;;;;1039330;28;20120;-66
2022/05/03 00:35:23;;;;;;;1.47;1.37;;;14.10;99.90;;;;;;1035181;28;20124;-66
2022/05/03 00:35:54;;;;;;;1.92;1.42;;;14.10;99.90;;;;;;1035746;28;20328;-66
2022/05/03 00:36:25;;;;;;;1.87;1.37;;;14.10;99.90;;;;;;1034828;28;20018;-66
2022/05/03 00:36:55;;;;;;;1.90;1.33;;;14.10;99.90;;;;;;1035764;28;20018;-65
2022/05/03 00:37:26;;;;;;;1.80;1.37;;;14.10;99.90;;;;;;1039297;28;20480;-66
2022/05/03 00:37:56;;;;;;;1.70;1.53;;;14.10;99.90;;;;;;1039463;28;20547;-65
2022/05/03 00:38:27;;;;;;;1.97;1.30;;;14.10;99.90;;;;;;1039353;28;20022;-65
2022/05/03 00:38:58;;;;;;;1.40;1.30;;;14.10;99.90;;;;;;1039775;28;20016;-65
2022/05/03 00:39:28;;;;;;;1.83;1.50;;;14.10;99.90;;;;;;1039604;28;20100;-65
2022/05/03 00:39:59;;;;;;;1.60;1.50;;;14.10;99.90;;;;;;1039577;28;20017;-65
2022/05/03 00:40:32;;;;;;;1.17;1.03;;;14.10;99.90;;;;;;1039487;28;20101;-66
2022/05/03 00:41:08;;;;;;;1.55;1.30;;;14.10;99.90;;;;;;1037712;28;20412;-65
2022/05/03 00:41:48;;;;;;;1.90;1.33;;;14.10;99.90;;;;;;1034182;28;20512;-65
2022/05/03 00:42:25;;;;;;;2.03;1.40;;;14.10;99.90;;;;;;1034097;28;20037;-65
2022/05/03 00:43:10;;;;;;;3.45;1.77;;;14.10;99.90;;;;;;1038282;28;20128;-66
2022/05/03 00:43:57;;;;;;;1.20;1.10;;;14.10;99.90;;;;;;1038753;28;20108;-65
2022/05/03 00:44:58;;;;;;;1.63;1.20;;;14.10;99.90;;;;;;1039272;28;20091;-65
2022/05/03 00:45:56;;;;;;;1.60;1.35;;;14.10;99.90;;;;;;1035120;28;20042;-67
2022/05/03 00:46:30;;;;;;;1.73;1.20;;;14.10;99.90;;;;;;1034747;28;20022;-67
2022/05/03 00:47:07;;;;;;;2.55;1.30;;;14.00;99.90;;;;;;1035277;28;20128;-67
2022/05/03 00:48:01;;;;;;;2.33;1.50;;;14.00;99.90;;;;;;1035688;28;20025;-65
2022/05/03 00:48:47;;;;;;;1.30;1.20;;;14.00;99.90;;;;;;1035385;28;20018;-64
2022/05/03 00:49:40;;;;;;;1.75;1.25;;;14.00;99.90;;;;;;1035543;28;20104;-64
2022/05/03 00:50:25;;;;;;;1.90;1.40;;;14.00;99.90;;;;;;1035569;28;20010;-66
2022/05/03 00:51:10;;;;;;;1.45;1.35;;;14.00;99.90;;;;;;1035600;28;20137;-66
2022/05/03 00:51:52;;;;;;;2.00;1.45;;;14.00;99.90;;;;;;1035386;28;20144;-65
2022/05/03 00:52:37;;;;;;;1.30;1.20;;;14.00;99.90;;;;;;1035357;28;20648;-65
2022/05/03 00:53:15;;;;;;;1.88;1.30;;;14.00;99.90;;;;;;1035707;28;20442;-64
2022/05/03 00:54:13;;;;;;;2.53;1.45;;;14.00;99.90;;;;;;1035587;28;20465;-64
2022/05/03 00:55:10;;;;;;;2.88;1.63;;;13.90;99.90;;;;;;1035188;28;20018;-65
2022/05/03 00:55:55;;;;;;;2.84;1.50;;;13.90;99.90;;;;;;1035528;28;20029;-67
2022/05/03 00:57:14;;;;;;;1.70;1.40;;;13.90;99.90;;;;;;1037722;28;20033;-65
2022/05/03 00:58:25;;;;;;;1.63;1.17;;;13.90;99.90;;;;;;1035493;28;20072;-64
2022/05/03 00:59:45;;;;;;;1.52;1.30;;;13.90;99.90;;;;;;1036277;28;20263;-64
2022/05/03 01:00:15;;;;;;;1.73;1.38;;;13.90;99.90;;;;;;1039014;28;20049;-65
2022/05/03 01:01:27;;;;;;;1.47;1.23;;;13.90;99.90;;;;;;1041663;28;20017;-65
2022/05/03 01:02:08;;;;;;;3.38;1.52;;;13.90;99.90;;;;;;1040639;28;20086;-65
2022/05/03 01:03:14;;;;;;;1.77;1.48;;;13.90;99.90;;;;;;1038900;28;20021;-64
2022/05/03 01:04:05;;;;;;;;;;;13.90;99.90;;;;;;1039911;28;20018;-64
2022/05/03 01:04:44;;;;;;;1.92;1.30;;;13.90;99.90;;;;;;1033760;28;19909;-66
2022/05/03 01:05:25;;;;;;;2.67;1.45;;;13.90;99.90;;;;;;1035106;28;20072;-66
2022/05/03 01:06:15;;;;;;;1.50;1.40;;;13.90;99.90;;;;;;1039647;28;20177;-65
2022/05/03 01:07:02;;;;;;;1.77;1.50;;;13.90;99.90;;;;;;1039400;28;20014;-65
2022/05/03 01:07:35;;;;;;;1.55;1.42;;;13.80;99.90;;;;;;1039170;28;20100;-65
2022/05/03 01:08:07;;;;;;;2.50;1.70;;;13.80;99.90;;;;;;1039339;28;20475;-65
2022/05/03 01:08:58;;;;;;;1.80;1.67;;;13.80;99.90;;;;;;1038867;28;20109;-65
2022/05/03 01:09:32;;;;;;;1.58;1.40;;;13.80;99.90;;;;;;1039344;28;20115;-65
2022/05/03 01:10:11;;;;;;;1.60;1.40;;;13.80;99.90;;;;;;1039211;28;20381;-65
2022/05/03 01:11:02;;;;;;;1.80;1.52;;;13.80;99.90;;;;;;1039211;28;20105;-65
2022/05/03 01:12:03;;;;;;;1.65;1.48;;;13.80;99.90;;;;;;1038282;28;20049;-65
2022/05/03 01:12:47;;;;;;;1.65;1.48;;;13.80;99.90;;;;;;1038372;28;20049;-65
2022/05/03 01:13:34;;;;;;;2.55;1.30;;;13.80;99.90;;;;;;1039051;28;20226;-66
2022/05/03 01:14:21;;;;;;;1.50;1.40;;;13.80;99.90;;;;;;1034373;28;20080;-66
2022/05/03 01:15:05;;;;;;;1.98;1.60;;;13.80;99.90;;;;;;1034767;28;20022;-66
2022/05/03 01:15:44;;;;;;;1.45;1.35;;;13.80;99.90;;;;;;1039043;28;20024;-66
2022/05/03 01:16:23;;;;;;;;;;;13.80;99.90;;;;;;1035581;28;20074;-66
2022/05/03 01:17:04;;;;;;;2.63;1.67;;;13.80;99.90;;;;;;1035130;28;19996;-66
2022/05/03 01:17:45;;;;;;;1.58;1.23;;;13.80;99.90;;;;;;1038717;28;20114;-66
2022/05/03 01:18:26;;;;;;;2.10;1.35;;;13.80;99.90;;;;;;1039570;28;20022;-66
2022/05/03 01:19:03;;;;;;;1.55;1.38;;;13.80;99.90;;;;;;1039145;28;20040;-66
2022/05/03 01:20:03;;;;;;;2.78;1.48;;;13.80;99.90;;;;;;1039274;28;20016;-67
2022/05/03 01:20:42;;;;;;;1.52;1.30;;;13.80;99.90;;;;;;1038998;28;20725;-66
2022/05/03 01:21:18;;;;;;;2.60;1.65;;;13.80;99.90;;;;;;1039799;28;20021;-67
2022/05/03 01:21:57;;;;;;;2.13;1.60;;;13.80;99.90;;;;;;1039681;28;20014;-65
2022/05/03 01:22:55;;;;;;;1.65;1.02;;;13.80;99.90;;;;;;1039318;28;20017;-66
2022/05/03 01:23:45;;;;;;;2.33;2.13;;;13.80;99.90;;;;;;1039527;28;20013;-65
2022/05/03 01:24:34;;;;;;;2.75;1.63;;;13.80;99.90;;;;;;1039750;28;20612;-65
2022/05/03 01:25:43;;;;;;;1.60;1.27;;;13.80;99.90;;;;;;1039411;28;20332;-66
2022/05/03 01:26:39;;;;;;;1.98;1.63;;;13.80;99.90;;;;;;1038573;28;20025;-65
2022/05/03 01:27:45;;;;;;;1.55;1.38;;;13.80;99.90;;;;;;1035766;28;20010;-64
2022/05/03 01:28:56;;;;;;;1.73;1.30;;;13.80;99.90;;;;;;1035525;28;20061;-66
2022/05/03 01:29:30;;;;;;;2.15;1.60;;;13.80;99.90;;;;;;1039891;28;20036;-65
2022/05/03 01:30:02;;;;;;;1.88;1.65;;;13.80;99.90;;;;;;1039344;28;20018;-66
2022/05/03 01:30:35;;;;;;;1.38;1.27;;;13.70;99.90;;;;;;1035660;28;20018;-67
2022/05/03 01:31:11;;;;;;;1.63;1.30;;;13.80;99.90;;;;;;1035742;28;20029;-66
2022/05/03 01:31:42;;;;;;;2.38;1.80;;;13.70;99.90;;;;;;1037051;28;20032;-66
2022/05/03 01:32:18;;;;;;;2.10;1.58;;;13.70;99.90;;;;;;1041247;28;20100;-65
2022/05/03 01:32:50;;;;;;;3.58;1.55;;;13.70;99.90;;;;;;1042154;28;20024;-65
2022/05/03 01:33:34;;;;;;;2.10;1.33;;;13.70;99.90;;;;;;1038756;28;20029;-66
2022/05/03 01:34:06;;;;;;;1.90;1.45;;;13.70;99.90;;;;;;1036305;28;20018;-65
2022/05/03 01:34:37;;;;;;;3.58;1.58;;;13.70;99.90;;;;;;1036016;28;20056;-66
2022/05/03 01:35:09;;;;;;;1.55;1.30;;;13.70;99.90;;;;;;1035905;28;20524;-65
2022/05/03 01:35:40;;;;;;;1.70;1.38;;;13.70;99.90;;;;;;1035869;28;20630;-65
2022/05/03 01:36:11;;;;;;;1.10;1.10;;;13.70;99.90;;;;;;1036028;28;20715;-66
2022/05/03 01:36:59;;;;;;;2.40;1.73;;;13.70;99.90;;;;;;1035534;28;20089;-66
2022/05/03 01:37:42;;;;;;;2.25;1.17;;;13.70;99.90;;;;;;1034488;28;20466;-64
2022/05/03 01:38:30;;;;;;;1.77;1.50;;;13.70;99.90;;;;;;1036097;28;20013;-66
2022/05/03 01:39:09;;;;;;;1.92;1.52;;;13.70;99.90;;;;;;1035633;28;20026;-64
2022/05/03 01:39:42;;;;;;;;;;;13.70;99.90;;;;;;1036730;28;20105;-64
2022/05/03 01:40:22;;;;;;;2.95;1.23;;;13.60;99.90;;;;;;1036340;28;19959;-64
2022/05/03 01:41:06;;;;;;;3.22;1.70;;;13.60;99.90;;;;;;1035563;28;20014;-64
2022/05/03 01:41:49;;;;;;;2.60;1.65;;;13.60;99.90;;;;;;1038678;28;20112;-65
2022/05/03 01:42:56;;;;;;;2.17;1.40;;;13.60;99.90;;;;;;1031946;28;20022;-64
2022/05/03 01:43:47;;;;;;;2.00;1.80;;;13.60;99.90;;;;;;1035837;28;20108;-65
2022/05/03 01:44:44;;;;;;;1.88;1.50;;;13.60;99.90;;;;;;1038212;28;20025;-64
2022/05/03 01:45:31;;;;;;;1.80;1.58;;;13.60;99.90;;;;;;1040018;28;20100;-66
2022/05/03 01:46:15;;;;;;;2.60;1.85;;;13.60;99.90;;;;;;1039946;28;20095;-65
2022/05/03 01:46:53;;;;;;;2.97;1.52;;;13.60;99.90;;;;;;1039622;28;20017;-65
2022/05/03 01:47:32;;;;;;;1.60;1.50;;;13.60;99.90;;;;;;1041426;28;20005;-65
2022/05/03 01:48:14;;;;;;;2.55;1.67;;;13.60;99.90;;;;;;1040263;28;20097;-65
2022/05/03 01:50:18;;;;;;;1.92;1.63;;;13.50;99.90;;;;;;1040339;28;20445;-66
2022/05/03 01:51:05;;;;;;;2.22;1.67;;;13.50;99.90;;;;;;1039830;28;20024;-65
2022/05/03 01:52:06;;;;;;;2.42;2.22;;;13.50;99.90;;;;;;1040332;28;20068;-64
2022/05/03 01:52:43;;;;;;;2.05;1.85;;;13.50;99.90;;;;;;1039634;28;20095;-65
2022/05/03 01:53:35;;;;;;;3.50;1.95;;;13.50;99.90;;;;;;1039640;28;20092;-66
2022/05/03 01:54:26;;;;;;;2.08;1.88;;;13.50;99.90;;;;;;1039910;28;20012;-64
2022/05/03 01:55:12;;;;;;;2.33;1.92;;;13.50;99.90;;;;;;1039771;28;20104;-65
2022/05/03 01:56:02;;;;;;;1.73;1.52;;;13.50;99.90;;;;;;1039999;28;20009;-64
2022/05/03 01:56:56;;;;;;;2.17;1.60;;;13.50;99.90;;;;;;1038657;28;20032;-65
2022/05/03 01:57:40;;;;;;;3.30;1.73;;;13.50;99.90;;;;;;1036020;28;20457;-65
2022/05/03 01:58:22;;;;;;;2.03;1.83;;;13.50;99.90;;;;;;1040169;28;20096;-65
2022/05/03 01:59:24;;;;;;;1.63;1.50;;;13.50;99.90;;;;;;1039940;28;20013;-65
2022/05/03 02:00:10;;;;;;;1.90;1.60;;;13.50;99.90;;;;;;1039830;28;20021;-64
2022/05/03 02:00:53;;;;;;;2.30;1.50;;;13.50;99.90;;;;;;1039391;28;20084;-67
2022/05/03 02:01:53;;;;;;;2.40;1.65;;;13.50;99.90;;;;;;1040154;28;20103;-64
2022/05/03 02:02:39;;;;;;;2.95;1.60;;;13.50;99.90;;;;;;1039540;28;20013;-69
2022/05/03 02:03:45;;;;;;;1.73;1.60;;;13.50;99.90;;;;;;1040110;28;20016;-64
2022/05/03 02:04:35;;;;;;;;;;;13.50;99.90;;;;;;1040765;28;20476;-66
2022/05/03 02:05:06;;;;;;;1.70;1.60;;;13.50;99.90;;;;;;1039682;28;19917;-63
2022/05/03 02:05:57;;;;;;;2.45;1.95;;;13.50;99.90;;;;;;1039907;28;20017;-66
2022/05/03 02:06:46;;;;;;;1.80;1.60;;;13.50;99.90;;;;;;1039774;28;20100;-67
2022/05/03 02:07:50;;;;;;;1.88;1.50;;;13.50;99.90;;;;;;1039680;28;20834;-67
2022/05/03 02:08:23;;;;;;;2.42;1.92;;;13.50;99.90;;;;;;1039935;28;20389;-65
2022/05/03 02:09:03;;;;;;;2.58;2.10;;;13.40;99.90;;;;;;1039592;28;20100;-66
2022/05/03 02:10:01;;;;;;;1.92;1.70;;;13.40;99.90;;;;;;1040121;28;20017;-65
2022/05/03 02:10:44;;;;;;;1.88;1.65;;;13.40;99.90;;;;;;1040275;28;20098;-65
2022/05/03 02:11:32;;;;;;;1.75;1.65;;;13.40;99.90;;;;;;1039579;28;20041;-66
2022/05/03 02:12:08;;;;;;;;;;;13.40;99.90;;;;;;1039400;28;20022;-65
2022/05/03 02:12:45;;;;;;;2.25;1.80;;;13.40;99.90;;;;;;1035644;28;19909;-66
2022/05/03 02:13:24;;;;;;;2.90;1.77;;;13.40;99.90;;;;;;1039110;28;20516;-65
2022/05/03 02:14:53;;;;;;;1.63;1.50;;;13.40;99.90;;;;;;1040046;28;20503;-64
2022/05/03 02:15:42;;;;;;;2.90;1.75;;;13.40;99.90;;;;;;1039986;28;20016;-64
2022/05/03 02:16:14;;;;;;;2.38;1.60;;;13.40;99.90;;;;;;1040044;28;20107;-65
2022/05/03 02:17:04;;;;;;;2.53;1.90;;;13.40;99.90;;;;;;1038780;28;20476;-64
2022/05/03 02:18:04;;;;;;;3.17;1.92;;;13.40;99.90;;;;;;1038899;28;20121;-65
2022/05/03 02:18:52;;;;;;;2.28;1.83;;;13.40;99.90;;;;;;1039546;28;20025;-66
2022/05/03 02:19:37;;;;;;;2.28;1.98;;;13.40;99.90;;;;;;1039506;28;20067;-64
2022/05/03 02:20:20;;;;;;;2.13;1.90;;;13.30;99.90;;;;;;1039897;28;20203;-63
2022/05/03 02:20:59;;;;;;;1.88;1.67;;;13.30;99.90;;;;;;1040007;28;20013;-66
2022/05/03 02:21:40;;;;;;;2.47;1.98;;;13.30;99.90;;;;;;1040020;28;20384;-64
2022/05/03 02:22:26;;;;;;;2.67;1.95;;;13.30;99.90;;;;;;1040243;28;20017;-64
2022/05/03 02:23:22;;;;;;;2.67;1.90;;;13.30;99.90;;;;;;1040115;28;20018;-66
2022/05/03 02:24:14;;;;;;;4.47;1.80;;;13.30;99.90;;;;;;1036560;28;20109;-65
2022/05/03 02:25:02;;;;;;;2.95;1.95;;;13.30;99.90;;;;;;1036018;28;20014;-65
2022/05/03 02:25:35;;;;;;;2.75;2.38;;;13.30;99.90;;;;;;1036119;28;20018;-65
2022/05/03 02:26:26;;;;;;;2.22;1.77;;;13.30;99.90;;;;;;1036026;28;20029;-66
2022/05/03 02:27:09;;;;;;;1.80;1.65;;;13.30;99.90;;;;;;1038502;28;20147;-66
2022/05/03 02:27:48;;;;;;;2.47;2.00;;;13.20;99.90;;;;;;1040108;28;20017;-67
2022/05/03 02:28:43;;;;;;;1.92;1.70;;;13.20;99.90;;;;;;1039456;28;20220;-64
2022/05/03 02:29:21;;;;;;;2.80;2.10;;;13.20;99.90;;;;;;1039764;28;20025;-67
2022/05/03 02:29:53;;;;;;;2.50;2.20;;;13.20;99.90;;;;;;1040081;28;20393;-66
2022/05/03 02:30:26;;;;;;;2.45;2.03;;;13.20;99.90;;;;;;1040106;28;20020;-65
2022/05/03 02:31:02;;;;;;;2.15;1.95;;;13.20;99.90;;;;;;1039933;28;20383;-66
2022/05/03 02:31:49;;;;;;;3.58;2.03;;;13.20;99.90;;;;;;1039848;28;20027;-65
2022/05/03 02:32:34;;;;;;;2.40;1.88;;;13.20;99.90;;;;;;1035704;28;20373;-65
2022/05/03 02:33:17;;;;;;;1.80;1.65;;;13.20;99.90;;;;;;1035550;28;20022;-66
2022/05/03 02:33:58;;;;;;;2.10;1.90;;;13.20;99.90;;;;;;1035691;28;20014;-65
2022/05/03 02:34:31;;;;;;;1.92;1.70;;;13.20;99.90;;;;;;1035960;28;20080;-65
2022/05/03 02:35:05;;;;;;;2.55;1.90;;;13.20;99.90;;;;;;1035362;28;20425;-65
2022/05/03 02:35:35;;;;;;;3.40;1.60;;;13.20;99.90;;;;;;1035561;28;20014;-66
2022/05/03 02:36:12;;;;;;;2.10;1.90;;;13.20;99.90;;;;;;1035663;28;20041;-66
2022/05/03 02:36:58;;;;;;;2.55;1.77;;;13.20;99.90;;;;;;1035607;28;20033;-65
2022/05/03 02:37:47;;;;;;;1.80;1.70;;;13.20;99.90;;;;;;1035469;28;20010;-65
2022/05/03 02:38:24;;;;;;;1.95;1.75;;;13.20;99.90;;;;;;1036031;28;20033;-66
2022/05/03 02:39:05;;;;;;;1.95;1.55;;;13.20;99.90;;;;;;1035955;28;20022;-66
2022/05/03 02:39:41;;;;;;;4.70;2.38;;;13.20;99.90;;;;;;1035755;28;20028;-65
2022/05/03 02:40:15;;;;;;;4.18;1.80;;;13.20;99.90;;;;;;1035931;28;20014;-65
2022/05/03 02:40:52;;;;;;;3.60;2.00;;;13.20;99.90;;;;;;1035393;28;20118;-65
2022/05/03 02:41:24;;;;;;;2.85;2.13;;;13.20;99.90;;;;;;1035345;28;20017;-65
2022/05/03 02:41:58;;;;;;;3.45;2.15;;;13.20;99.90;;;;;;1038093;28;20029;-65
2022/05/03 02:42:31;;;;;;;2.15;1.95;;;13.20;99.90;;;;;;1039548;28;20092;-65
2022/05/03 02:43:02;;;;;;;2.30;1.85;;;13.20;99.90;;;;;;1039733;28;20101;-66
2022/05/03 02:43:34;;;;;;;2.22;2.03;;;13.20;99.90;;;;;;1039425;28;20408;-65
2022/05/03 02:44:05;;;;;;;2.60;1.80;;;13.20;99.90;;;;;;1040064;28;20564;-65
2022/05/03 02:44:39;;;;;;;2.25;2.00;;;13.20;99.90;;;;;;1038799;28;20040;-65
2022/05/03 02:45:12;;;;;;;2.42;1.80;;;13.20;99.90;;;;;;1039585;28;20344;-65
2022/05/03 02:45:56;;;;;;;2.55;1.90;;;13.20;99.90;;;;;;1039572;28;20017;-65
2022/05/03 02:46:49;;;;;;;2.83;2.10;;;13.20;99.90;;;;;;1039955;28;20408;-65
2022/05/03 02:47:51;;;;;;;2.70;2.10;;;13.20;99.90;;;;;;1039709;28;20377;-65
2022/05/03 02:48:42;;;;;;;2.53;1.90;;;13.20;99.90;;;;;;1038815;28;20047;-64
2022/05/03 02:49:19;;;;;;;2.33;2.13;;;13.20;99.90;;;;;;1039903;28;20017;-67
2022/05/03 02:50:08;;;;;;;2.65;1.95;;;13.20;99.90;;;;;;1039978;28;20017;-64
2022/05/03 02:50:55;;;;;;;2.88;1.98;;;13.10;99.90;;;;;;1039636;28;20113;-64
2022/05/03 02:51:38;;;;;;;1.92;1.73;;;13.10;99.90;;;;;;1039260;28;20059;-66
2022/05/03 02:52:19;;;;;;;3.10;2.35;;;13.10;99.90;;;;;;1039661;28;20028;-64
2022/05/03 02:53:06;;;;;;;2.20;1.70;;;13.10;99.90;;;;;;1039990;28;20025;-64
2022/05/03 02:53:50;;;;;;;4.63;1.90;;;13.10;99.90;;;;;;1039388;28;20032;-65
2022/05/03 02:55:06;;;;;;;2.95;1.92;;;13.10;99.90;;;;;;1039663;28;20017;-64
2022/05/03 02:55:45;;;;;;;4.95;2.00;;;13.10;99.90;;;;;;1039546;28;20017;-64
2022/05/03 02:56:21;;;;;;;2.35;1.67;;;13.10;99.90;;;;;;1035481;28;20281;-65
2022/05/03 02:57:25;;;;;;;2.78;1.88;;;13.10;99.90;;;;;;1033403;28;20029;-64
2022/05/03 02:58:17;;;;;;;2.50;1.85;;;13.10;99.90;;;;;;1032343;28;20060;-65
2022/05/03 02:59:05;;;;;;;2.50;1.77;;;13.00;99.90;;;;;;1039917;28;20067;-64
2022/05/03 03:02:14;;;;;;;2.30;2.03;;;13.00;99.90;;;;;;1039873;28;20040;-64
2022/05/03 03:03:12;;;;;;;2.63;2.20;;;13.00;99.90;;;;;;1038880;28;20025;-64
2022/05/03 03:03:48;;;;;;;2.67;2.15;;;13.00;99.90;;;;;;1034984;28;20084;-65
2022/05/03 03:04:37;;;;;;;2.53;1.70;;;13.00;99.90;;;;;;1031282;28;20049;-63
2022/05/03 03:05:10;;;;;;;2.75;1.95;;;13.00;99.90;;;;;;1031021;28;20058;-65
2022/05/03 03:05:46;;;;;;;3.55;2.20;;;13.00;99.90;;;;;;1036484;28;20021;-65
2022/05/03 03:06:22;;;;;;;2.33;1.77;;;13.00;99.90;;;;;;1039645;28;20075;-63
2022/05/03 03:06:55;;;;;;;3.30;1.90;;;13.00;99.90;;;;;;1038100;28;20571;-63
2022/05/03 03:07:31;;;;;;;4.13;2.30;;;13.00;99.90;;;;;;1035550;28;20053;-64
2022/05/03 03:08:03;;;;;;;2.47;2.15;;;12.90;99.90;;;;;;1035878;28;20040;-64
2022/05/03 03:08:43;;;;;;;2.60;2.25;;;12.90;99.90;;;;;;1035848;28;20097;-64
2022/05/03 03:09:24;;;;;;;3.33;2.13;;;12.90;99.90;;;;;;1035433;28;20546;-64
2022/05/03 03:09:59;;;;;;;2.80;2.40;;;12.90;99.90;;;;;;1035549;28;20075;-64
2022/05/03 03:10:53;;;;;;;3.05;1.95;;;12.90;99.90;;;;;;1035561;28;20022;-64
2022/05/03 03:11:58;;;;;;;2.65;1.90;;;12.90;99.90;;;;;;1035643;28;20422;-63
2022/05/03 03:12:38;;;;;;;3.60;1.73;;;12.90;99.90;;;;;;1038553;28;20068;-64
2022/05/03 03:13:38;;;;;;;2.05;1.85;;;12.90;99.90;;;;;;1039360;28;20085;-63
2022/05/03 03:14:25;;;;;;;2.75;2.17;;;12.90;99.90;;;;;;1031093;28;20028;-64
2022/05/03 03:15:06;;;;;;;2.85;2.08;;;12.90;99.90;;;;;;1038995;28;20018;-64
2022/05/03 03:15:42;;;;;;;2.95;1.83;;;12.90;99.90;;;;;;1038924;28;20072;-65
2022/05/03 03:16:14;;;;;;;2.60;1.90;;;12.90;99.90;;;;;;1039539;28;20022;-64
2022/05/03 03:16:53;;;;;;;3.25;2.03;;;12.90;99.90;;;;;;1039524;28;20570;-63
2022/05/03 03:17:28;;;;;;;3.05;1.70;;;12.90;99.90;;;;;;1039569;28;20021;-64
2022/05/03 03:18:04;;;;;;;2.38;2.17;;;12.90;99.90;;;;;;1039259;28;20017;-64
2022/05/03 03:18:36;;;;;;;3.08;1.80;;;12.90;99.90;;;;;;1039627;28;20024;-64
2022/05/03 03:19:44;;;;;;;2.47;1.80;;;12.90;99.90;;;;;;1039653;28;20104;-64
2022/05/03 03:20:17;;;;;;;3.33;2.10;;;12.90;99.90;;;;;;1039629;28;20104;-63
2022/05/03 03:20:56;;;;;;;2.55;1.83;;;12.90;99.90;;;;;;1039371;28;20029;-65
2022/05/03 03:21:32;;;;;;;4.53;2.25;;;12.90;99.90;;;;;;1039017;28;20044;-66
2022/05/03 03:22:05;;;;;;;3.50;1.92;;;12.90;99.90;;;;;;1039342;28;20029;-64
2022/05/03 03:22:39;;;;;;;2.88;2.10;;;12.90;99.90;;;;;;1039451;28;20051;-64
2022/05/03 03:23:18;;;;;;;3.03;2.15;;;12.90;99.90;;;;;;1039105;28;20026;-64
2022/05/03 03:23:50;;;;;;;2.05;1.80;;;12.90;99.90;;;;;;1039568;28;20025;-64
2022/05/03 03:24:22;;;;;;;2.30;1.95;;;12.90;99.90;;;;;;1039404;28;20112;-64
2022/05/03 03:24:57;;;;;;;2.25;1.77;;;12.90;99.90;;;;;;1039685;28;20036;-63
2022/05/03 03:25:28;;;;;;;4.18;2.50;;;12.90;99.90;;;;;;1039456;28;20546;-64
2022/05/03 03:25:59;;;;;;;2.30;1.75;;;12.90;99.90;;;;;;1039605;28;20464;-63
2022/05/03 03:26:30;;;;;;;4.15;1.95;;;12.90;99.90;;;;;;1039730;28;20028;-65
2022/05/03 03:27:03;;;;;;;2.78;2.10;;;12.90;99.90;;;;;;1038280;28;20049;-64
2022/05/03 03:27:36;;;;;;;2.72;2.08;;;12.90;99.90;;;;;;1038336;28;20025;-65
2022/05/03 03:28:09;;;;;;;4.65;2.30;;;12.90;99.90;;;;;;1039536;28;20014;-63
2022/05/03 03:28:40;;;;;;;2.60;2.22;;;12.90;99.90;;;;;;1038870;28;20013;-63
2022/05/03 03:29:12;;;;;;;2.47;2.05;;;12.90;99.90;;;;;;1039873;28;20036;-63
2022/05/03 03:29:46;;;;;;;2.10;1.90;;;12.90;99.90;;;;;;1038960;28;20052;-64
2022/05/03 03:30:17;;;;;;;4.25;2.10;;;12.80;99.90;;;;;;1039241;28;20516;-63
2022/05/03 03:30:49;;;;;;;2.30;2.00;;;12.90;99.90;;;;;;1039528;28;20638;-66
2022/05/03 03:31:22;;;;;;;3.10;2.30;;;12.80;99.90;;;;;;1039424;28;20017;-68
2022/05/03 03:31:54;;;;;;;2.90;2.42;;;12.80;99.90;;;;;;1039413;28;20013;-66
2022/05/03 03:32:26;;;;;;;3.08;2.28;;;12.80;99.90;;;;;;1039790;28;20040;-66
2022/05/03 03:32:58;;;;;;;2.50;2.30;;;12.80;99.90;;;;;;1039659;28;20013;-64
2022/05/03 03:33:34;;;;;;;3.17;2.10;;;12.80;99.90;;;;;;1039456;28;20021;-64
2022/05/03 03:34:05;;;;;;;3.20;1.95;;;12.80;99.90;;;;;;1039342;28;20464;-63
2022/05/03 03:34:40;;;;;;;2.85;1.70;;;12.80;99.90;;;;;;1039482;28;20005;-64
2022/05/03 03:35:13;;;;;;;2.88;2.20;;;12.80;99.90;;;;;;1039634;28;20010;-63
2022/05/03 03:35:46;;;;;;;2.83;2.10;;;12.80;99.90;;;;;;1039421;28;20452;-65
2022/05/03 03:36:18;;;;;;;3.60;2.00;;;12.80;99.90;;;;;;1039523;28;20018;-64
2022/05/03 03:36:52;;;;;;;3.72;2.42;;;12.80;99.90;;;;;;1039923;28;20012;-65
2022/05/03 03:37:27;;;;;;;3.05;2.00;;;12.80;99.90;;;;;;1039695;28;20036;-64
2022/05/03 03:38:01;;;;;;;2.55;1.95;;;12.80;99.90;;;;;;1039369;28;20037;-64
2022/05/03 03:38:39;;;;;;;2.85;1.80;;;12.80;99.90;;;;;;1039401;28;20098;-65
2022/05/03 03:39:09;;;;;;;3.13;2.20;;;12.80;99.90;;;;;;1039595;28;20013;-64
2022/05/03 03:39:40;;;;;;;1.93;1.73;;;12.80;99.90;;;;;;1039330;28;20041;-65